Latest Weather Observations for Rockhampton

IDQ60801

Issued at 10:05 am EST Monday 22 September 2014 (issued every 30 minutes, with the page automatically refreshed every 10 minutes)

About weather observations | Map of weather stations | Latest weather observations for QLD | Other Formats
Station Details ID: 039083 Name: ROCKHAMPTON AERO Lat: -23.38 Lon: 150.48 Height: 10.4 m
Data from the previous 72 hours. | See also: Recent months at Rockhampton
Date/Time
EST
Temp
°C
App
Temp
°C
Dew
Point
Rel
Hum
%
Delta-T
°C
Wind Press
QNH
hPa
Press
MSL
hPa
Rain
since 9 am
mm
Dir
 
Spd
km/h
Gust
km/h
Spd
kts
Gust
kts
22/10:00am 16.6 14.6 15.6 94 0.6 SE 20 32 11 17 1023.0 - 1.8
22/09:30am 16.7 15.4 15.8 94 0.5 ESE 17 24 9 13 1022.8 - 1.2
22/09:10am 16.5 15.1 15.5 94 0.6 SE 17 24 9 13 1022.7 - 0.8
22/09:00am 16.6 15.5 15.4 93 0.7 SE 15 22 8 12 1022.8 1022.7 24.6
22/08:30am 16.4 15.3 15.4 94 0.6 SE 15 24 8 13 1022.9 - 23.8
22/08:00am 16.3 15.0 14.9 91 0.8 SE 15 22 8 12 1023.0 - 23.6
22/07:30am 16.1 15.1 14.7 91 0.8 SE 13 19 7 10 1022.7 - 23.4
22/07:08am 15.9 14.5 14.5 91 0.8 SE 15 20 8 11 1022.1 - 23.4
22/07:00am 15.9 14.5 14.5 91 0.8 SE 15 22 8 12 1022.1 - 23.4
22/06:30am 15.8 14.1 14.6 93 0.7 SE 17 28 9 15 1021.7 - 23.4
22/06:00am 15.6 14.3 14.7 94 0.5 SE 15 26 8 14 1021.3 1021.2 23.4
22/05:30am 15.7 13.9 14.5 93 0.7 ESE 17 26 9 14 1020.8 - 23.4
22/05:00am 15.6 13.4 14.5 93 0.6 SE 19 28 10 15 1020.9 - 23.4
22/04:30am 15.5 13.7 14.4 93 0.6 SE 17 26 9 14 1020.6 - 23.4
22/04:00am 15.3 13.5 14.4 94 0.5 SE 17 26 9 14 1020.7 - 23.4
22/03:39am 15.3 13.0 14.2 93 0.6 SE 19 30 10 16 1020.7 - 23.2
22/03:30am 15.3 13.9 14.4 94 0.5 ESE 15 22 8 12 1020.8 - 23.2
22/03:13am 15.4 13.9 14.2 92 0.7 ESE 15 22 8 12 1021.1 - 22.8
22/03:00am 15.6 14.5 14.2 91 0.8 ESE 13 22 7 12 1021.2 1021.1 22.6
22/02:48am 15.5 14.4 14.3 92 0.7 E 13 19 7 10 1021.1 - 22.6
22/02:37am 15.4 14.8 14.5 94 0.5 E 11 17 6 9 1021.3 - 22.6
22/02:30am 15.5 14.8 14.4 93 0.6 E 11 15 6 8 1021.3 - 22.4
22/02:00am 15.7 15.7 14.1 90 0.9 SE 7 15 4 8 1021.6 - 22.2
22/01:30am 15.6 15.2 14.2 91 0.8 E 9 15 5 8 1022.1 - 22.2
22/01:00am 15.3 14.6 14.4 94 0.5 ESE 11 15 6 8 1022.4 - 22.2
22/12:30am 15.3 14.7 14.6 96 0.4 ESE 11 15 6 8 1022.7 - 22.2
22/12:00am 15.3 14.2 14.4 94 0.5 ESE 13 19 7 10 1023.1 1023.0 22.0
 
Date/Time
EST
Temp
°C
App
Temp
°C
Dew
Point
Rel
Hum
%
Delta-T
°C
Wind Press
QNH
hPa
Press
MSL
hPa
Rain
since 9 am
mm
Dir
 
Spd
km/h
Gust
km/h
Spd
kts
Gust
kts
21/11:30pm 15.3 14.2 14.4 94 0.5 SE 13 19 7 10 1023.6 - 21.6
21/11:00pm 15.3 14.3 14.6 96 0.4 ESE 13 20 7 11 1023.7 - 20.6
21/10:54pm 15.3 14.3 14.6 96 0.4 SE 13 20 7 11 1023.7 - 20.6
21/10:30pm 15.4 14.0 14.5 94 0.5 SE 15 24 8 13 1023.9 - 20.0
21/10:26pm 15.4 14.0 14.5 94 0.5 SE 15 24 8 13 1023.8 - 20.0
21/10:00pm 15.4 14.7 14.3 93 0.6 ESE 11 15 6 8 1024.0 - 19.6
21/09:30pm 15.6 13.4 14.5 93 0.6 SSE 19 28 10 15 1023.8 - 19.0
21/09:27pm 15.6 13.4 14.5 93 0.6 SSE 19 26 10 14 1023.7 - 19.0
21/09:12pm 15.9 13.5 14.5 91 0.8 SSE 20 30 11 16 1023.8 - 18.4
21/09:00pm 16.2 14.3 15.2 94 0.6 SSE 19 26 10 14 1023.6 1023.5 18.4
21/08:38pm 16.3 14.5 15.4 94 0.5 SSE 19 30 10 16 1023.6 - 17.4
21/08:30pm 16.3 14.8 15.4 94 0.5 SSE 17 24 9 13 1023.7 - 17.0
21/08:26pm 16.4 14.9 15.4 94 0.6 SSE 17 24 9 13 1023.6 - 17.0
21/08:18pm 16.4 15.0 15.5 94 0.5 SSE 17 22 9 12 1023.7 - 17.0
21/08:00pm 16.4 15.1 15.7 96 0.4 SSE 17 24 9 13 1023.5 - 16.8
21/07:44pm 16.3 14.5 15.4 94 0.5 SSE 19 24 10 13 1023.6 - 15.6
21/07:30pm 16.3 15.2 15.4 94 0.5 S 15 20 8 11 1023.3 - 14.6
21/07:00pm 16.8 16.3 15.9 94 0.5 S 13 17 7 9 1022.9 - 13.0
21/06:30pm 17.5 15.7 16.1 91 0.8 SE 20 30 11 16 1021.9 - 13.0
21/06:00pm 17.5 16.8 16.3 93 0.7 SE 15 20 8 11 1021.6 1021.5 13.0
21/05:30pm 17.5 18.0 16.5 94 0.6 SE 9 15 5 8 1021.2 - 13.0
21/05:00pm 17.6 17.2 16.2 91 0.8 SE 13 20 7 11 1020.8 - 13.0
21/04:30pm 18.6 19.1 17.4 93 0.7 ESE 11 15 6 8 1020.7 - 13.0
21/04:24pm 18.6 18.9 16.9 90 1.0 ESE 11 15 6 8 1020.4 - 13.0
21/04:17pm 18.4 18.9 17.4 94 0.6 ESE 11 13 6 7 1020.4 - 12.4
21/04:14pm 18.4 19.7 17.6 95 0.5 E 7 13 4 7 1020.6 - 11.4
21/04:10pm 18.5 20.3 17.5 94 0.6 E 4 11 2 6 1020.4 - 8.8
21/04:00pm 18.4 19.7 17.6 95 0.5 N 7 13 4 7 1020.4 - 8.4
21/03:42pm 18.7 19.5 17.2 91 0.9 SE 9 15 5 8 1020.4 - 6.4
21/03:30pm 18.8 18.3 16.8 88 1.2 E 15 22 8 12 1020.4 - 5.8
21/03:23pm 18.9 18.8 16.9 88 1.2 E 13 20 7 11 1020.2 - 5.4
21/03:00pm 18.9 19.2 16.9 88 1.2 ENE 11 15 6 8 1020.1 1020.0 4.0
21/02:43pm 19.1 16.8 16.6 85 1.5 NNE 24 35 13 19 1020.3 - 2.2
21/02:40pm 20.0 17.6 16.3 79 2.2 NNE 24 32 13 17 1020.1 - 1.2
21/02:36pm 22.0 20.7 14.7 63 4.3 ENE 15 24 8 13 1020.0 - 0.6
21/02:30pm 22.1 20.4 14.6 62 4.4 E 17 24 9 13 1019.9 - 0.6
21/02:00pm 22.8 20.9 15.2 62 4.5 E 19 32 10 17 1020.0 - 0.6
21/01:30pm 21.6 20.1 15.2 67 3.8 E 17 28 9 15 1020.3 - 0.6
21/01:00pm 21.9 21.1 15.1 65 4.0 ENE 13 20 7 11 1020.6 - 0.6
21/12:30pm 21.8 21.1 15.4 67 3.8 ENE 13 20 7 11 1020.9 - 0.6
21/12:00pm 21.6 21.2 16.3 72 3.2 NE 13 20 7 11 1021.3 1021.2 0.6
21/11:30am 20.6 19.8 16.1 75 2.7 ENE 15 26 8 14 1021.4 - 0.6
21/11:00am 22.4 18.9 13.4 56 5.2 ENE 24 37 13 20 1021.9 - 0.0
21/10:30am 22.7 19.8 13.9 57 5.1 E 22 35 12 19 1021.8 - 0.0
21/10:00am 22.0 20.5 16.4 70 3.4 ESE 19 30 10 16 1022.3 - 0.0
21/09:30am 21.7 19.1 16.0 70 3.4 ESE 24 41 13 22 1022.1 - 0.0
21/09:00am 23.1 20.4 13.4 54 5.6 E 20 30 11 16 1021.8 1021.7 0.0
21/08:30am 22.6 21.2 15.6 64 4.2 ESE 17 24 9 13 1021.6 - 0.0
21/08:00am 20.9 20.1 16.1 74 2.9 SE 15 24 8 13 1021.7 - 0.0
21/07:30am 19.5 19.4 16.0 80 2.1 SSE 11 19 6 10 1021.7 - 0.0
21/07:00am 18.6 18.3 15.5 82 1.8 SSE 11 15 6 8 1021.4 - 0.0
21/06:30am 18.1 17.3 15.0 82 1.8 ESE 13 19 7 10 1020.8 - 0.0
21/06:00am 18.5 17.7 15.1 80 2.0 SE 13 17 7 9 1020.6 1020.5 0.0
21/05:30am 18.2 18.3 15.5 84 1.6 SSE 9 13 5 7 1020.3 - 0.0
21/05:00am 18.3 19.0 15.6 84 1.6 SE 6 9 3 5 1020.0 - 0.0
21/04:30am 18.4 18.5 15.5 83 1.7 ESE 9 13 5 7 1019.6 - 0.0
21/04:00am 19.1 19.2 15.5 79 2.1 ESE 9 13 5 7 1019.3 - 0.0
21/03:30am 18.9 19.3 15.3 79 2.1 SE 7 11 4 6 1019.4 - 0.0
21/03:00am 19.4 19.8 15.3 77 2.4 SE 7 11 4 6 1019.2 1019.1 0.0
21/02:30am 19.7 19.7 15.3 76 2.6 SSE 9 13 5 7 1019.4 - 0.0
21/02:00am 20.4 20.7 15.1 71 3.1 SE 7 13 4 7 1019.9 - 0.0
21/01:30am 20.3 19.9 15.2 72 3.0 E 11 19 6 10 1019.8 - 0.0
21/01:00am 20.5 20.1 15.2 71 3.1 ESE 11 19 6 10 1020.1 - 0.0
21/12:30am 20.5 19.9 15.6 73 2.9 ESE 13 20 7 11 1020.2 - 0.0
21/12:00am 20.8 20.9 15.4 71 3.2 ESE 9 17 5 9 1020.0 1019.9 0.0
 
Date/Time
EST
Temp
°C
App
Temp
°C
Dew
Point
Rel
Hum
%
Delta-T
°C
Wind Press
QNH
hPa
Press
MSL
hPa
Rain
since 9 am
mm
Dir
 
Spd
km/h
Gust
km/h
Spd
kts
Gust
kts
20/11:30pm 20.3 21.8 15.6 74 2.8 E 2 9 1 5 1020.1 - 0.0
20/11:00pm 20.9 21.3 15.3 70 3.3 ESE 7 9 4 5 1020.1 - 0.0
20/10:30pm 21.1 23.1 15.9 72 3.1 CALM 0 6 0 3 1020.2 - 0.0
20/10:00pm 21.0 22.0 15.4 70 3.3 N 4 6 2 3 1020.2 - 0.0
20/09:30pm 20.6 21.2 15.2 71 3.2 ESE 6 9 3 5 1020.1 - 0.0
20/09:00pm 20.8 21.2 15.2 70 3.3 SE 7 7 4 4 1020.1 1020.0 0.0
20/08:30pm 20.8 21.1 14.4 67 3.7 SE 6 9 3 5 1019.8 - 0.0
20/08:00pm 21.0 21.0 15.1 69 3.5 NNE 9 13 5 7 1019.6 - 0.0
20/07:30pm 21.2 20.9 14.3 64 4.0 NE 9 13 5 7 1019.0 - 0.0
20/07:00pm 21.5 20.6 12.5 56 5.1 ENE 9 15 5 8 1018.5 - 0.0
20/06:30pm 21.8 20.9 11.3 51 5.8 NE 7 13 4 7 1017.9 - 0.0
20/06:00pm 22.8 20.3 9.7 43 7.1 NNE 13 19 7 10 1017.1 1017.0 0.0
20/05:30pm 23.7 21.2 9.7 41 7.6 NE 13 20 7 11 1016.4 - 0.0
20/05:00pm 24.9 20.5 8.8 36 8.7 NNE 22 32 12 17 1015.9 - 0.0
20/04:30pm 26.3 22.9 9.1 33 9.4 NE 17 26 9 14 1015.6 - 0.0
20/04:00pm 26.4 23.2 10.0 35 9.1 ENE 17 24 9 13 1015.2 - 0.0
20/03:30pm 26.6 23.2 9.3 33 9.5 ENE 17 24 9 13 1014.9 - 0.0
20/03:00pm 27.2 23.6 8.4 30 10.2 ENE 17 24 9 13 1014.9 1014.8 0.0
20/02:30pm 26.8 23.5 8.0 30 10.1 ENE 15 26 8 14 1015.1 - 0.0
20/02:00pm 28.2 24.5 8.1 28 10.9 E 17 28 9 15 1015.6 - 0.0
20/01:30pm 26.0 22.7 9.4 35 9.1 E 17 26 9 14 1016.0 - 0.0
20/01:00pm 26.3 23.5 11.5 39 8.4 E 17 28 9 15 1016.5 - 0.0
20/12:30pm 28.0 26.0 10.2 33 10.0 SE 11 20 6 11 1016.8 - 0.0
20/12:00pm 28.2 26.9 10.0 32 10.2 ESE 7 15 4 8 1017.2 1017.1 0.0
20/11:30am 27.1 25.1 10.0 34 9.5 NW 11 17 6 9 1017.9 - 0.0
20/11:00am 26.4 24.0 10.0 35 9.1 NNE 13 26 7 14 1018.4 - 0.0
20/10:30am 26.2 24.9 11.4 39 8.4 NE 9 19 5 10 1018.9 - 0.0
20/10:00am 24.6 23.9 13.2 49 6.6 ENE 9 15 5 8 1019.3 - 0.0
20/09:30am 24.1 23.3 14.0 53 5.9 ENE 11 17 6 9 1019.6 - 0.0
20/09:00am 23.4 22.2 14.0 55 5.5 ESE 13 17 7 9 1019.8 1019.7 0.0
20/08:30am 22.4 21.8 14.6 61 4.6 ESE 11 17 6 9 1019.9 - 0.0
20/08:00am 20.8 20.3 15.0 69 3.4 ESE 11 17 6 9 1020.0 - 0.0
20/07:30am 18.9 18.9 15.3 79 2.1 SSE 9 13 5 7 1019.8 - 0.0
20/07:00am 17.2 17.8 15.3 88 1.1 SSE 6 7 3 4 1019.3 - 0.0
20/06:30am 14.9 14.1 14.0 94 0.5 SW 11 13 6 7 1018.9 - 0.0
20/06:25am 14.6 13.6 13.5 93 0.6 SW 11 13 6 7 1018.8 - 0.0
20/06:00am 15.2 16.2 14.3 94 0.5 SE 2 9 1 5 1018.4 1018.3 0.0
20/05:46am 14.6 14.6 13.5 93 0.6 E 6 9 3 5 1018.4 - 0.0
20/05:30am 14.5 14.9 13.8 96 0.4 ESE 4 7 2 4 1018.2 - 0.0
20/05:00am 14.8 15.5 13.4 91 0.8 WSW 2 7 1 4 1018.0 - 0.0
20/04:30am 15.4 15.6 14.3 93 0.6 ESE 6 9 3 5 1017.5 - 0.0
20/04:00am 15.2 14.8 14.0 92 0.7 S 9 15 5 8 1017.3 - 0.0
20/03:30am 15.5 15.8 14.6 94 0.5 SSE 6 9 3 5 1016.6 - 0.0
20/03:00am 15.0 15.5 14.1 94 0.5 S 4 6 2 3 1016.7 1016.6 0.0
20/02:30am 15.5 15.8 14.4 93 0.6 S 6 7 3 4 1016.9 - 0.0
20/02:00am 15.9 17.1 15.0 94 0.5 SSE 2 7 1 4 1017.3 - 0.0
20/01:30am 15.6 17.1 14.7 94 0.5 CALM 0 0 0 0 1017.5 - 0.0
20/01:00am 15.9 16.2 14.9 94 0.6 SSW 7 9 4 5 1017.5 - 0.0
20/12:30am 16.2 17.7 14.6 90 0.9 CALM 0 0 0 0 1017.7 - 0.0
20/12:00am 17.1 17.6 15.0 87 1.2 SSW 6 7 3 4 1018.2 1018.1 0.0
 
Date/Time
EST
Temp
°C
App
Temp
°C
Dew
Point
Rel
Hum
%
Delta-T
°C
Wind Press
QNH
hPa
Press
MSL
hPa
Rain
since 9 am
mm
Dir
 
Spd
km/h
Gust
km/h
Spd
kts
Gust
kts
19/11:30pm 17.4 17.7 14.6 83 1.6 S 6 9 3 5 1018.4 - 0.0
19/11:00pm 17.8 18.9 14.5 81 1.9 SE 2 6 1 3 1018.3 - 0.0
19/10:30pm 18.5 18.8 14.5 77 2.3 SW 6 9 3 5 1018.4 - 0.0
19/10:00pm 19.9 20.5 15.3 75 2.7 NE 6 11 3 6 1018.4 - 0.0
19/09:30pm 20.2 20.3 14.5 69 3.3 NE 7 13 4 7 1018.4 - 0.0
19/09:00pm 20.3 18.8 14.3 68 3.5 NE 15 22 8 12 1018.4 1018.3 0.0
19/08:30pm 19.6 18.9 15.5 77 2.4 NNE 13 19 7 10 1018.5 - 0.0
19/08:00pm 19.6 19.1 15.9 79 2.2 NNE 13 17 7 9 1018.4 - 0.0
19/07:30pm 20.1 19.2 15.9 77 2.5 NNE 15 20 8 11 1018.3 - 0.0
19/07:00pm 20.6 19.3 15.9 74 2.8 NNE 17 24 9 13 1018.0 - 0.0
19/06:30pm 21.2 19.3 15.3 69 3.5 NNE 19 24 10 13 1017.3 - 0.0
19/06:00pm 21.8 19.7 14.7 64 4.2 NNE 19 28 10 15 1016.9 1016.8 0.0
19/05:30pm 22.8 19.4 13.7 56 5.3 N 24 33 13 18 1016.4 - 0.0
19/05:00pm 24.2 20.8 13.6 51 6.2 NNE 24 32 13 17 1015.7 - 0.0
19/04:30pm 26.2 23.4 11.4 39 8.4 NE 17 24 9 13 1015.2 - 0.0
19/04:00pm 26.3 23.0 10.8 37 8.7 NE 19 26 10 14 1015.0 - 0.0
19/03:30pm 26.6 23.1 10.8 37 8.9 NNE 20 30 11 16 1014.9 - 0.0
19/03:00pm 27.3 23.8 10.9 36 9.3 NNE 20 30 11 16 1015.1 1015.0 0.0
19/02:30pm 27.2 24.4 12.6 40 8.5 NNE 19 26 10 14 1015.4 - 0.0
19/02:00pm 27.7 23.2 12.6 39 8.8 NNE 28 30 15 16 1015.8 - 0.0
19/01:30pm 27.7 25.1 12.1 38 9.0 NNE 17 22 9 12 1016.2 - 0.0
19/01:00pm 26.5 25.3 11.6 39 8.5 ENE 9 13 5 7 1016.8 - 0.0
19/12:30pm 27.0 24.9 8.3 30 10.1 NE 9 19 5 10 1017.2 - 0.0
19/12:00pm 27.8 25.4 10.1 33 9.9 ENE 13 20 7 11 1017.8 1017.7 0.0
19/11:30am 26.7 24.5 9.4 33 9.5 NE 11 24 6 13 1018.5 - 0.0
19/11:00am 26.4 25.0 11.0 38 8.7 NW 9 13 5 7 1019.1 - 0.0
19/10:30am 25.7 25.2 12.7 44 7.5 E 7 13 4 7 1019.7 - 0.0

Other Formats:

Comma delimited format used in spreadsheet applications
http://www.bom.gov.au/fwo/IDQ60801/IDQ60801.94374.axf

JavaScript Object Notation format (JSON) in row-major order
http://www.bom.gov.au/fwo/IDQ60801/IDQ60801.94374.json